Time;durP1;ratioP1;P1;durP2;ratioP2;P2;SDS_P1;SDS_P2;PMS_P1;PMS_P2;Temp;Humidity;BMP_temperature;BMP_pressure;BME280_temperature;BME280_humidity;BME280_pressure;Samples;Min_cycle;Max_cycle;Signal;HPM_P1;HPM_P2
2023/05/29 00:00:49;;;;;;;12.77;2.88;;;12.30;99.90;;;;;;5037912;28;20057;-59
2023/05/29 00:03:17;;;;;;;17.27;3.08;;;12.30;99.90;;;;;;5038051;28;20051;-55
2023/05/29 00:05:44;;;;;;;10.70;2.47;;;12.40;99.90;;;;;;5040487;28;20060;-56
2023/05/29 00:08:11;;;;;;;14.85;2.58;;;12.30;99.90;;;;;;5030346;28;20171;-55
2023/05/29 00:10:38;;;;;;;19.40;5.25;;;12.30;99.90;;;;;;5043552;28;20045;-57
2023/05/29 00:13:06;;;;;;;16.45;4.22;;;12.40;99.90;;;;;;5030267;28;20049;-59
2023/05/29 00:15:34;;;;;;;11.65;3.30;;;12.30;99.90;;;;;;5042864;28;20080;-58
2023/05/29 00:18:01;;;;;;;22.48;4.13;;;12.30;99.90;;;;;;5032802;28;20040;-57
2023/05/29 00:20:28;;;;;;;14.30;3.00;;;12.20;99.90;;;;;;5034087;28;20680;-58
2023/05/29 00:22:55;;;;;;;18.20;3.03;;;12.20;99.90;;;;;;5041824;28;20059;-58
2023/05/29 00:25:22;;;;;;;12.77;3.05;;;12.20;99.90;;;;;;5040169;28;20496;-57
2023/05/29 00:27:49;;;;;;;13.82;3.40;;;12.20;99.90;;;;;;5041439;28;20045;-59
2023/05/29 00:30:16;;;;;;;13.48;2.70;;;12.20;99.90;;;;;;5039936;28;20053;-58
2023/05/29 00:32:43;;;;;;;13.43;3.35;;;12.10;99.90;;;;;;5015823;28;20103;-59
2023/05/29 00:35:10;;;;;;;8.63;3.13;;;12.00;99.90;;;;;;5036032;28;20392;-58
2023/05/29 00:37:37;;;;;;;14.27;2.80;;;12.00;99.90;;;;;;5038813;28;20049;-59
2023/05/29 00:40:04;;;;;;;10.68;3.15;;;12.00;99.90;;;;;;5036536;28;20060;-58
2023/05/29 00:42:31;;;;;;;18.17;5.28;;;12.00;99.90;;;;;;5021451;28;20122;-60
2023/05/29 00:44:58;;;;;;;18.58;4.57;;;11.90;99.90;;;;;;5034859;28;20539;-57
2023/05/29 00:47:25;;;;;;;20.52;3.08;;;11.90;99.90;;;;;;5039866;28;20049;-57
2023/05/29 00:49:52;;;;;;;22.30;3.17;;;12.00;99.90;;;;;;5015034;28;20076;-59
2023/05/29 00:52:18;;;;;;;22.48;4.35;;;11.90;99.90;;;;;;5024564;28;20045;-59
2023/05/29 00:54:45;;;;;;;16.38;3.35;;;11.80;99.90;;;;;;5012607;28;20087;-57
2023/05/29 00:57:13;;;;;;;12.38;2.70;;;11.80;99.90;;;;;;5025786;28;20451;-57
2023/05/29 00:59:40;;;;;;;18.73;4.95;;;11.70;99.90;;;;;;5029626;28;20042;-57
2023/05/29 01:02:07;;;;;;;11.88;2.85;;;11.70;99.90;;;;;;5024931;28;20507;-56
2023/05/29 01:04:33;;;;;;;15.75;4.28;;;11.70;99.90;;;;;;5014029;28;20049;-58
2023/05/29 01:07:02;;;;;;;16.40;3.42;;;11.80;99.90;;;;;;5023029;28;20052;-59
2023/05/29 01:09:30;;;;;;;16.75;3.08;;;11.70;99.90;;;;;;5033231;28;20045;-59
2023/05/29 01:12:04;;;;;;;14.43;3.13;;;11.70;99.90;;;;;;5021405;28;20048;-54
2023/05/29 01:14:49;;;;;;;;;;;11.70;99.90;;;;;;5034012;28;20103;-59
2023/05/29 01:17:20;;;;;;;16.13;3.47;;;11.60;99.90;;;;;;5031388;28;19975;-58
2023/05/29 01:20:23;;;;;;;14.15;2.75;;;11.60;99.90;;;;;;5023588;28;20060;-60
2023/05/29 01:23:21;;;;;;;19.30;3.45;;;11.60;99.90;;;;;;5032138;28;20049;-56
2023/05/29 01:26:12;;;;;;;15.43;3.03;;;11.60;99.90;;;;;;5028413;28;20049;-60
2023/05/29 01:28:43;;;;;;;16.92;4.30;;;11.60;99.90;;;;;;5026717;28;20090;-59
2023/05/29 01:31:10;;;;;;;14.95;3.40;;;11.60;99.90;;;;;;5015855;28;20045;-56
2023/05/29 01:33:40;;;;;;;20.52;5.38;;;11.50;99.90;;;;;;5035144;28;20133;-57
2023/05/29 01:36:11;;;;;;;16.63;3.88;;;11.40;99.90;;;;;;4692319;28;10000451;-58
2023/05/29 01:38:37;;;;;;;15.90;2.58;;;11.40;99.90;;;;;;5045495;28;20052;-59
2023/05/29 01:41:04;;;;;;;19.98;3.53;;;11.40;99.90;;;;;;5032731;28;20118;-57
2023/05/29 01:43:31;;;;;;;17.35;3.22;;;11.50;99.90;;;;;;5017282;28;20272;-56
2023/05/29 01:45:58;;;;;;;17.60;3.33;;;11.40;99.90;;;;;;5027745;28;20072;-58
2023/05/29 01:48:25;;;;;;;12.50;3.25;;;11.50;99.90;;;;;;5036624;28;20069;-60
2023/05/29 01:50:52;;;;;;;24.00;4.43;;;11.50;99.90;;;;;;5044828;28;20057;-60
2023/05/29 01:53:19;;;;;;;16.45;2.95;;;11.50;99.90;;;;;;5020317;28;20046;-57
2023/05/29 01:55:46;;;;;;;21.33;3.40;;;11.40;99.90;;;;;;5024833;28;20072;-58
2023/05/29 01:58:13;;;;;;;15.18;2.30;;;11.30;99.90;;;;;;5023847;28;20042;-59
2023/05/29 02:00:40;;;;;;;11.13;2.85;;;11.30;99.90;;;;;;5022772;28;20189;-58
2023/05/29 02:03:07;;;;;;;15.05;3.25;;;11.30;99.90;;;;;;5038959;28;20045;-57
2023/05/29 02:05:34;;;;;;;16.58;2.83;;;11.30;99.90;;;;;;5040957;28;20053;-57
2023/05/29 02:08:01;;;;;;;16.27;2.72;;;11.30;99.90;;;;;;5039159;28;20523;-62
2023/05/29 02:10:27;;;;;;;12.13;2.17;;;11.30;99.90;;;;;;5041346;28;20041;-59
2023/05/29 02:12:55;;;;;;;22.58;3.15;;;11.30;99.90;;;;;;5033300;28;20445;-58
2023/05/29 02:15:21;;;;;;;16.98;4.03;;;11.20;99.90;;;;;;5040185;28;20103;-57
2023/05/29 02:17:49;;;;;;;20.88;2.40;;;11.20;99.90;;;;;;5040748;28;20069;-57
2023/05/29 02:20:16;;;;;;;15.02;2.40;;;11.20;99.90;;;;;;5034740;28;20423;-58
2023/05/29 02:22:43;;;;;;;19.27;3.78;;;11.20;99.90;;;;;;5045901;28;20045;-57
2023/05/29 02:25:10;;;;;;;13.40;3.13;;;11.20;99.90;;;;;;5036502;28;20044;-58
2023/05/29 02:27:37;;;;;;;14.43;3.22;;;11.10;99.90;;;;;;5042060;28;20048;-56
2023/05/29 02:30:05;;;;;;;10.80;2.58;;;11.10;99.90;;;;;;5033836;28;20053;-59
2023/05/29 02:32:32;;;;;;;17.63;3.05;;;11.00;99.90;;;;;;5034943;28;20044;-58
2023/05/29 02:34:59;;;;;;;14.23;2.97;;;11.00;99.90;;;;;;5040304;28;20514;-59
2023/05/29 02:37:26;;;;;;;14.25;2.50;;;11.00;99.90;;;;;;5034986;28;20061;-59
2023/05/29 02:39:53;;;;;;;21.42;3.83;;;11.00;99.90;;;;;;5041407;28;20099;-60
2023/05/29 02:42:20;;;;;;;13.30;2.78;;;11.00;99.90;;;;;;5037195;28;20523;-60
2023/05/29 02:44:47;;;;;;;17.45;3.53;;;11.00;99.90;;;;;;5039345;28;20049;-57
2023/05/29 02:47:13;;;;;;;14.88;3.42;;;10.90;99.90;;;;;;5040112;28;20555;-64
2023/05/29 02:49:40;;;;;;;15.15;2.75;;;10.90;99.90;;;;;;5039514;28;20049;-59
2023/05/29 02:52:08;;;;;;;13.10;2.92;;;11.00;99.90;;;;;;5038292;28;20103;-59
2023/05/29 02:54:35;;;;;;;15.60;3.55;;;10.90;99.90;;;;;;5039213;28;20527;-58
2023/05/29 02:57:02;;;;;;;13.82;3.00;;;10.90;99.90;;;;;;5038029;28;20090;-57
2023/05/29 02:59:29;;;;;;;10.48;2.55;;;10.90;99.90;;;;;;5040989;28;20539;-57
2023/05/29 03:01:56;;;;;;;11.20;3.45;;;10.90;99.90;;;;;;5041099;28;20501;-58
2023/05/29 03:04:22;;;;;;;22.60;3.38;;;10.90;99.90;;;;;;5034289;28;20048;-57
2023/05/29 03:06:49;;;;;;;15.48;2.20;;;10.80;99.90;;;;;;5043507;28;20045;-60
2023/05/29 03:09:16;;;;;;;14.35;3.22;;;10.70;99.90;;;;;;5032251;28;20484;-59
2023/05/29 03:11:44;;;;;;;12.98;3.20;;;10.70;99.90;;;;;;5044628;28;20106;-58
2023/05/29 03:14:11;;;;;;;20.95;3.55;;;10.70;99.90;;;;;;5046000;28;20055;-57
2023/05/29 03:16:38;;;;;;;19.02;3.13;;;10.60;99.90;;;;;;5020556;28;20495;-57
2023/05/29 03:19:05;;;;;;;15.52;2.90;;;10.60;99.90;;;;;;5033273;28;20049;-58
2023/05/29 03:21:32;;;;;;;19.48;3.13;;;10.60;99.90;;;;;;5042000;28;20049;-59
2023/05/29 03:24:00;;;;;;;22.80;3.40;;;10.60;99.90;;;;;;5013632;28;20089;-56
2023/05/29 03:26:27;;;;;;;11.32;2.50;;;10.60;99.90;;;;;;5036223;28;20055;-59
2023/05/29 03:28:54;;;;;;;15.77;2.55;;;10.60;99.90;;;;;;5041630;28;20272;-58
2023/05/29 03:31:21;;;;;;;12.57;3.53;;;10.60;99.90;;;;;;5037003;28;20067;-59
2023/05/29 03:33:48;;;;;;;18.95;2.85;;;10.50;99.90;;;;;;5037846;28;20049;-56
2023/05/29 03:36:18;;;;;;;11.55;2.90;;;10.50;99.90;;;;;;5036979;28;20057;-58
2023/05/29 03:38:45;;;;;;;15.50;3.70;;;10.40;99.90;;;;;;5039663;28;20535;-58
2023/05/29 03:41:12;;;;;;;20.23;3.15;;;10.40;99.90;;;;;;5036197;28;20099;-56
2023/05/29 03:43:38;;;;;;;13.80;2.75;;;10.40;99.90;;;;;;5021916;28;20359;-57
2023/05/29 03:46:05;;;;;;;21.13;4.68;;;10.40;99.90;;;;;;5035721;28;20111;-58
2023/05/29 03:48:32;;;;;;;15.25;3.40;;;10.50;99.90;;;;;;5036192;28;20513;-57
2023/05/29 03:50:59;;;;;;;11.82;3.20;;;10.40;99.90;;;;;;5041773;28;20133;-58
2023/05/29 03:53:26;;;;;;;13.88;3.03;;;10.40;99.90;;;;;;5034108;28;20092;-59
2023/05/29 03:55:53;;;;;;;13.68;2.30;;;10.30;99.90;;;;;;5043948;28;20096;-56
2023/05/29 03:58:20;;;;;;;14.45;2.83;;;10.30;99.90;;;;;;5044611;28;20140;-58
2023/05/29 04:00:46;;;;;;;14.50;3.10;;;10.30;99.90;;;;;;5046286;28;20098;-58
2023/05/29 04:03:13;;;;;;;12.23;2.40;;;10.30;99.90;;;;;;5032501;28;20496;-59
2023/05/29 04:05:40;;;;;;;11.80;2.38;;;10.30;99.90;;;;;;5041967;28;20434;-58
2023/05/29 04:08:08;;;;;;;16.98;3.20;;;10.40;99.90;;;;;;5041699;28;20121;-59
2023/05/29 04:10:43;;;;;;;9.93;2.63;;;10.30;99.90;;;;;;5033391;28;20049;-59
2023/05/29 04:13:10;;;;;;;12.18;2.38;;;10.20;99.90;;;;;;5037679;28;20416;-58
2023/05/29 04:15:37;;;;;;;22.13;3.28;;;10.30;99.90;;;;;;5042131;28;20087;-59
2023/05/29 04:18:04;;;;;;;15.27;2.33;;;10.30;99.90;;;;;;5040073;28;20057;-59
2023/05/29 04:20:31;;;;;;;13.38;2.63;;;10.20;99.90;;;;;;5040484;28;20056;-60
2023/05/29 04:22:58;;;;;;;15.52;3.35;;;10.20;99.90;;;;;;5035762;28;20053;-59
2023/05/29 04:25:25;;;;;;;10.00;2.95;;;10.30;99.90;;;;;;5038464;28;20561;-60
2023/05/29 04:27:51;;;;;;;12.55;2.55;;;10.20;99.90;;;;;;5037506;28;20045;-57
2023/05/29 04:30:18;;;;;;;17.52;2.38;;;10.20;99.90;;;;;;5039392;28;20096;-58
2023/05/29 04:32:46;;;;;;;15.25;2.83;;;10.30;99.90;;;;;;5033894;28;20402;-59
2023/05/29 04:35:13;;;;;;;13.95;3.00;;;10.30;99.90;;;;;;5023089;28;20046;-59
2023/05/29 04:37:40;;;;;;;8.98;2.17;;;10.30;99.90;;;;;;5040763;28;20076;-59
2023/05/29 04:40:10;;;;;;;13.35;2.67;;;10.30;99.90;;;;;;5034920;28;20099;-59
2023/05/29 04:42:40;;;;;;;16.65;2.67;;;10.30;99.90;;;;;;5042554;28;20045;-59
2023/05/29 04:45:09;;;;;;;16.60;2.28;;;10.40;99.90;;;;;;5033678;28;20049;-58
2023/05/29 04:47:43;;;;;;;13.98;2.65;;;10.40;99.90;;;;;;5043959;28;20052;-59
2023/05/29 04:50:13;;;;;;;11.55;2.63;;;10.40;99.90;;;;;;5040361;28;20043;-59
2023/05/29 04:52:40;;;;;;;13.20;2.33;;;10.50;99.90;;;;;;5031089;28;20107;-60
2023/05/29 04:55:07;;;;;;;20.05;2.63;;;10.50;99.90;;;;;;5043678;28;20099;-59
2023/05/29 04:57:33;;;;;;;16.38;2.53;;;10.60;99.90;;;;;;5030778;28;20053;-59
2023/05/29 05:00:00;;;;;;;17.23;3.90;;;10.60;99.90;;;;;;5046917;28;20048;-60
2023/05/29 05:02:27;;;;;;;14.18;2.80;;;10.60;99.90;;;;;;5036379;28;20459;-58
2023/05/29 05:04:54;;;;;;;8.77;2.58;;;10.60;99.90;;;;;;5044841;28;20435;-58
2023/05/29 05:07:21;;;;;;;14.30;2.72;;;10.70;99.90;;;;;;5037875;28;20050;-60
2023/05/29 05:09:48;;;;;;;13.55;2.63;;;10.70;99.90;;;;;;5039059;28;20492;-59
2023/05/29 05:12:15;;;;;;;34.95;6.80;;;10.70;99.90;;;;;;5043693;28;20052;-58
2023/05/29 05:14:42;;;;;;;25.83;6.78;;;10.80;99.90;;;;;;5041209;28;20495;-58
2023/05/29 05:17:09;;;;;;;9.43;2.45;;;10.80;99.90;;;;;;5023841;28;20099;-58
2023/05/29 05:19:36;;;;;;;8.48;2.55;;;10.90;99.90;;;;;;5041553;28;20072;-59
2023/05/29 05:22:03;;;;;;;12.35;2.70;;;11.00;99.90;;;;;;5040018;28;20202;-58
2023/05/29 05:24:31;;;;;;;13.60;2.33;;;11.00;99.90;;;;;;5041705;28;20488;-58
2023/05/29 05:26:58;;;;;;;15.88;4.68;;;11.10;99.90;;;;;;5042367;28;20126;-58
2023/05/29 05:29:25;;;;;;;18.15;3.60;;;11.10;99.90;;;;;;5038453;28;20106;-58
2023/05/29 05:31:54;;;;;;;8.85;2.08;;;11.20;99.90;;;;;;5042723;28;20057;-57
2023/05/29 05:34:20;;;;;;;10.93;3.20;;;11.30;99.90;;;;;;5036374;28;20060;-58
2023/05/29 05:36:47;;;;;;;10.25;2.30;;;11.30;99.90;;;;;;5013475;28;20468;-58
2023/05/29 05:39:14;;;;;;;13.27;2.17;;;11.30;99.90;;;;;;5007720;28;20038;-58
2023/05/29 05:41:41;;;;;;;16.88;2.17;;;11.30;99.90;;;;;;4995801;28;20121;-59
2023/05/29 05:44:07;;;;;;;15.52;2.70;;;11.30;99.90;;;;;;5008476;28;20497;-58
2023/05/29 05:46:34;;;;;;;10.60;2.17;;;11.30;99.90;;;;;;4995537;28;20062;-58
2023/05/29 05:49:01;;;;;;;14.23;2.80;;;11.40;99.90;;;;;;5006173;28;20053;-57
2023/05/29 05:51:28;;;;;;;11.90;2.50;;;11.40;99.90;;;;;;4997757;28;20174;-57
2023/05/29 05:53:54;;;;;;;10.98;2.72;;;11.40;99.90;;;;;;5005110;28;20050;-58
2023/05/29 05:56:21;;;;;;;12.05;3.70;;;11.40;99.90;;;;;;4998968;28;20050;-58
2023/05/29 05:58:50;;;;;;;16.10;3.28;;;11.40;99.90;;;;;;5003084;28;20394;-59
2023/05/29 06:01:16;;;;;;;9.98;3.13;;;11.30;99.90;;;;;;5000461;28;20050;-57
2023/05/29 06:03:43;;;;;;;15.63;2.60;;;11.30;99.90;;;;;;5000898;28;20069;-58
2023/05/29 06:06:10;;;;;;;16.48;2.60;;;11.40;99.90;;;;;;5001175;28;20129;-58
2023/05/29 06:08:38;;;;;;;15.63;2.38;;;11.50;99.90;;;;;;5001804;28;20062;-58
2023/05/29 06:11:05;;;;;;;14.38;2.45;;;11.50;99.90;;;;;;5005518;28;20559;-56
2023/05/29 06:13:32;;;;;;;17.35;2.63;;;11.60;99.90;;;;;;5002144;28;20101;-58
2023/05/29 06:15:59;;;;;;;10.35;2.40;;;11.70;99.90;;;;;;4998356;28;20046;-58
2023/05/29 06:18:27;;;;;;;13.77;2.42;;;11.70;99.90;;;;;;5002930;28;20073;-63
2023/05/29 06:20:53;;;;;;;11.48;2.65;;;11.70;99.90;;;;;;4996054;28;20046;-58
2023/05/29 06:23:20;;;;;;;11.60;3.03;;;11.80;99.90;;;;;;5004626;28;20053;-58
2023/05/29 06:25:47;;;;;;;15.43;4.30;;;11.90;99.90;;;;;;4994541;28;20049;-57
2023/05/29 06:28:15;;;;;;;11.43;2.40;;;11.90;99.90;;;;;;4994842;28;20057;-57
2023/05/29 06:30:42;;;;;;;8.27;2.30;;;11.90;99.90;;;;;;5008528;28;20481;-58
2023/05/29 06:33:11;;;;;;;10.38;2.78;;;12.00;99.90;;;;;;5004689;28;20046;-58
2023/05/29 06:35:38;;;;;;;12.05;2.25;;;12.10;99.90;;;;;;4993422;28;20121;-58
2023/05/29 06:38:05;;;;;;;12.93;3.05;;;12.10;99.90;;;;;;5041163;28;20049;-59
2023/05/29 06:40:32;;;;;;;16.77;2.13;;;12.20;99.90;;;;;;5039894;28;20049;-58
2023/05/29 06:43:00;;;;;;;10.13;1.92;;;12.30;99.90;;;;;;5037072;28;20389;-58
2023/05/29 06:45:27;;;;;;;11.13;2.38;;;12.30;99.90;;;;;;5042836;28;20400;-58
2023/05/29 06:47:55;;;;;;;11.28;2.04;;;12.30;99.90;;;;;;4690540;28;10000593;-58
2023/05/29 06:50:22;;;;;;;7.65;2.28;;;12.50;99.90;;;;;;5037398;28;20131;-60
2023/05/29 06:52:49;;;;;;;13.20;2.65;;;12.40;99.90;;;;;;5038564;28;20045;-59
2023/05/29 06:55:16;;;;;;;13.07;2.30;;;12.40;99.90;;;;;;5040353;28;20554;-58
2023/05/29 06:57:43;;;;;;;14.15;2.95;;;12.50;99.90;;;;;;5041029;28;21037;-60
2023/05/29 07:00:10;;;;;;;8.10;2.05;;;12.50;99.90;;;;;;5037512;28;20116;-58
2023/05/29 07:02:37;;;;;;;13.18;2.40;;;12.60;99.90;;;;;;5033915;28;20117;-58
2023/05/29 07:05:05;;;;;;;10.88;3.78;;;12.70;99.90;;;;;;5033996;28;20067;-58
2023/05/29 07:07:32;;;;;;;8.00;2.30;;;12.70;99.90;;;;;;5039645;28;20057;-59
2023/05/29 07:09:58;;;;;;;12.93;2.50;;;12.80;99.90;;;;;;5035241;28;20121;-58
2023/05/29 07:12:26;;;;;;;9.93;2.28;;;12.90;99.90;;;;;;5039255;28;20056;-59
2023/05/29 07:14:53;;;;;;;13.23;2.20;;;13.00;99.90;;;;;;5037987;28;20041;-59
2023/05/29 07:17:20;;;;;;;14.38;2.63;;;13.00;99.90;;;;;;5041731;28;20156;-57
2023/05/29 07:19:49;;;;;;;18.13;3.58;;;13.10;99.90;;;;;;5039525;28;20542;-56
2023/05/29 07:22:16;;;;;;;11.05;2.42;;;13.20;99.90;;;;;;5038430;28;20041;-56
2023/05/29 07:24:43;;;;;;;9.48;2.10;;;13.30;99.90;;;;;;5037636;28;20041;-60
2023/05/29 07:27:09;;;;;;;11.95;2.42;;;13.30;99.90;;;;;;5043564;28;20493;-60
2023/05/29 07:29:36;;;;;;;10.38;2.53;;;13.20;99.90;;;;;;5038668;28;20563;-57
2023/05/29 07:32:03;;;;;;;14.27;2.35;;;13.20;99.90;;;;;;5040404;28;20463;-55
2023/05/29 07:34:31;;;;;;;11.07;2.55;;;13.30;99.90;;;;;;5035479;28;20041;-57
2023/05/29 07:37:05;;;;;;;7.40;1.88;;;13.30;99.90;;;;;;5039601;28;20057;-56
2023/05/29 07:39:32;;;;;;;12.85;1.95;;;13.40;99.90;;;;;;5021864;28;20057;-56
2023/05/29 07:42:01;;;;;;;10.75;2.40;;;13.50;99.90;;;;;;5035962;28;20057;-56
2023/05/29 07:44:27;;;;;;;15.90;2.60;;;13.60;99.90;;;;;;5038417;28;20487;-60
2023/05/29 07:46:54;;;;;;;11.88;2.78;;;13.60;99.90;;;;;;5040028;28;20049;-58
2023/05/29 07:49:21;;;;;;;19.20;2.25;;;13.70;99.90;;;;;;5038254;28;20061;-59
2023/05/29 07:51:48;;;;;;;11.35;2.58;;;13.80;99.90;;;;;;5037297;28;20216;-58
2023/05/29 07:54:18;;;;;;;19.50;2.65;;;13.80;99.90;;;;;;5029952;28;20041;-59
2023/05/29 07:56:46;;;;;;;17.63;4.40;;;13.90;99.90;;;;;;5033870;28;20939;-61
2023/05/29 07:59:13;;;;;;;12.02;2.15;;;13.90;99.90;;;;;;5029238;28;20042;-58
2023/05/29 08:01:40;;;;;;;11.07;3.67;;;13.90;99.90;;;;;;5035456;28;20075;-60
2023/05/29 08:04:06;;;;;;;16.08;3.13;;;13.90;99.90;;;;;;5028872;28;20053;-59
2023/05/29 08:06:33;;;;;;;13.90;3.75;;;14.00;99.90;;;;;;5039807;28;20515;-59
2023/05/29 08:09:01;;;;;;;14.27;3.58;;;14.00;99.90;;;;;;5027043;28;20057;-62
2023/05/29 08:11:28;;;;;;;12.57;2.03;;;14.10;99.90;;;;;;5031448;28;20073;-59
2023/05/29 08:13:55;;;;;;;13.05;3.63;;;14.10;99.90;;;;;;5011070;28;20186;-56
2023/05/29 08:16:22;;;;;;;14.15;3.17;;;14.10;99.90;;;;;;5037034;28;20649;-52
2023/05/29 08:18:50;;;;;;;9.30;2.65;;;14.20;99.90;;;;;;5033993;28;20428;-58
2023/05/29 08:21:17;;;;;;;12.32;2.97;;;14.20;99.90;;;;;;5035435;28;20045;-57
2023/05/29 08:23:44;;;;;;;12.93;2.75;;;14.30;99.90;;;;;;5033240;28;20055;-58
2023/05/29 08:26:12;;;;;;;12.70;2.20;;;14.30;99.90;;;;;;5036703;28;20045;-57
2023/05/29 08:28:39;;;;;;;13.02;2.88;;;14.20;99.90;;;;;;5035806;28;20057;-56
2023/05/29 08:31:08;;;;;;;8.95;2.60;;;14.20;99.90;;;;;;5034306;28;20102;-57
2023/05/29 08:33:36;;;;;;;15.93;3.17;;;14.20;99.90;;;;;;5037939;28;20067;-57
2023/05/29 08:36:03;;;;;;;8.75;1.80;;;14.20;99.90;;;;;;5017987;28;20050;-57
2023/05/29 08:38:30;;;;;;;9.73;2.75;;;14.20;99.90;;;;;;5035071;28;20049;-58
2023/05/29 08:41:00;;;;;;;6.63;1.80;;;14.20;99.90;;;;;;5034044;28;20052;-57
2023/05/29 08:43:30;;;;;;;12.27;2.42;;;14.20;99.90;;;;;;5019779;28;20179;-58
2023/05/29 08:46:02;;;;;;;12.52;2.75;;;14.20;99.90;;;;;;5035567;28;20110;-55
2023/05/29 08:48:30;;;;;;;10.55;2.35;;;14.30;99.90;;;;;;5035639;28;20072;-56
2023/05/29 08:50:57;;;;;;;7.80;1.58;;;14.50;99.90;;;;;;5043424;28;20463;-56
2023/05/29 08:53:25;;;;;;;15.68;3.38;;;14.50;99.90;;;;;;5041116;28;20060;-57
2023/05/29 08:55:52;;;;;;;11.35;2.33;;;14.60;99.90;;;;;;5032139;28;20056;-57
2023/05/29 08:58:20;;;;;;;16.48;3.03;;;14.70;99.90;;;;;;5031553;28;20084;-56
2023/05/29 09:00:48;;;;;;;15.15;2.70;;;14.70;99.90;;;;;;5029510;28;20129;-57
2023/05/29 09:03:15;;;;;;;11.13;2.90;;;14.80;99.90;;;;;;5042991;28;20140;-56
2023/05/29 09:05:43;;;;;;;10.77;2.60;;;14.90;99.90;;;;;;5030435;28;20091;-63
2023/05/29 09:08:11;;;;;;;16.67;3.08;;;15.00;99.90;;;;;;5024297;28;20049;-56
2023/05/29 09:10:43;;;;;;;15.48;2.72;;;15.00;99.90;;;;;;5032977;28;20050;-60
2023/05/29 09:13:11;;;;;;;13.35;2.65;;;15.00;99.90;;;;;;5039706;28;20044;-56
2023/05/29 09:15:40;;;;;;;12.25;3.28;;;14.90;99.90;;;;;;5038217;28;20045;-58
2023/05/29 09:18:08;;;;;;;16.77;2.60;;;14.90;99.90;;;;;;5042196;28;20283;-58
2023/05/29 09:20:35;;;;;;;11.40;2.60;;;14.90;99.90;;;;;;5034338;28;20056;-54
2023/05/29 09:23:07;;;;;;;18.92;2.03;;;15.00;99.90;;;;;;5037080;28;20056;-59
2023/05/29 09:25:41;;;;;;;14.25;2.42;;;15.00;99.90;;;;;;5035560;28;20131;-57
2023/05/29 09:28:10;;;;;;;10.10;2.13;;;15.20;99.90;;;;;;5034959;28;20050;-58
2023/05/29 09:30:42;;;;;;;9.02;2.70;;;15.30;99.90;;;;;;5020553;28;20051;-56
2023/05/29 09:33:10;;;;;;;15.10;2.50;;;15.40;99.90;;;;;;5038714;28;20118;-58
2023/05/29 09:35:41;;;;;;;12.82;2.80;;;15.40;99.90;;;;;;5036416;28;20573;-59
2023/05/29 09:38:09;;;;;;;13.73;4.32;;;15.40;99.90;;;;;;5037621;28;20053;-58
2023/05/29 09:40:37;;;;;;;13.77;3.30;;;15.50;99.90;;;;;;5035521;28;20389;-58
2023/05/29 09:43:11;;;;;;;11.68;2.78;;;15.70;99.90;;;;;;5037579;28;20053;-56
2023/05/29 09:45:41;;;;;;;;;;;16.10;99.80;;;;;;5041539;28;20103;-58
2023/05/29 09:48:12;;;;;;;16.27;2.55;;;16.10;98.90;;;;;;5034920;28;19937;-57
2023/05/29 09:50:39;;;;;;;9.88;1.75;;;16.00;99.90;;;;;;5035432;28;20045;-58
2023/05/29 09:53:19;;;;;;;13.68;2.90;;;15.90;99.90;;;;;;5024253;28;20557;-58
2023/05/29 09:55:50;;;;;;;9.60;2.25;;;15.90;99.30;;;;;;5034755;28;20049;-58
2023/05/29 09:58:20;;;;;;;11.77;2.60;;;16.00;99.50;;;;;;5039963;28;20382;-57
2023/05/29 10:00:48;;;;;;;28.05;3.80;;;16.00;99.60;;;;;;5033645;28;20077;-53
2023/05/29 10:03:16;;;;;;;15.07;2.83;;;16.10;99.60;;;;;;5041385;28;20056;-56
2023/05/29 10:05:46;;;;;;;18.65;3.35;;;16.40;99.50;;;;;;5029739;28;20072;-55
2023/05/29 10:08:15;;;;;;;17.58;3.05;;;16.70;99.40;;;;;;5026122;28;20048;-58
2023/05/29 10:10:43;;;;;;;10.57;2.47;;;16.90;99.10;;;;;;5017443;28;20068;-57
2023/05/29 10:13:11;;;;;;;10.52;2.25;;;17.00;99.00;;;;;;5037677;28;20134;-55
2023/05/29 10:15:40;;;;;;;11.98;2.35;;;17.30;98.70;;;;;;5018312;28;20111;-56
2023/05/29 10:18:18;;;;;;;8.57;2.50;;;17.30;97.50;;;;;;5019781;28;20049;-59
2023/05/29 10:20:45;;;;;;;10.50;2.25;;;17.10;97.30;;;;;;4999369;28;20496;-55
2023/05/29 10:23:11;;;;;;;11.65;3.10;;;17.50;97.80;;;;;;5040411;28;20141;-56
2023/05/29 10:25:38;;;;;;;14.63;2.92;;;18.00;97.40;;;;;;5019041;28;20048;-58
2023/05/29 10:28:05;;;;;;;10.45;2.20;;;18.50;95.90;;;;;;5021840;28;20134;-56
2023/05/29 10:30:41;;;;;;;8.18;2.10;;;18.60;95.30;;;;;;5033413;28;20056;-57
2023/05/29 10:33:51;;;;;;;7.60;2.53;;;18.40;94.90;;;;;;5019090;28;20060;-57
2023/05/29 10:36:21;;;;;;;7.43;2.20;;;18.50;93.40;;;;;;5026298;28;20106;-59
2023/05/29 10:38:48;;;;;;;8.13;2.42;;;18.70;95.20;;;;;;5033468;28;20111;-57
2023/05/29 10:41:27;;;;;;;12.82;2.97;;;19.10;93.50;;;;;;5036849;28;20045;-57
2023/05/29 10:44:03;;;;;;;12.75;2.92;;;19.20;91.90;;;;;;5035657;28;20384;-56
2023/05/29 10:46:43;;;;;;;12.75;2.58;;;19.40;91.90;;;;;;5016294;28;20049;-58
2023/05/29 10:49:16;;;;;;;9.75;2.35;;;19.20;91.00;;;;;;5035197;28;20057;-54
2023/05/29 10:51:43;;;;;;;7.63;1.88;;;18.80;91.90;;;;;;5018117;28;20459;-57
2023/05/29 10:54:10;;;;;;;10.82;2.30;;;18.50;92.40;;;;;;5038548;28;20048;-57
2023/05/29 10:56:37;;;;;;;8.43;2.95;;;18.40;92.70;;;;;;5033352;28;20048;-58
2023/05/29 10:59:04;;;;;;;15.52;2.50;;;18.40;93.10;;;;;;5035867;28;20053;-56
2023/05/29 11:01:31;;;;;;;11.88;2.60;;;18.50;92.70;;;;;;5015916;28;20044;-57
2023/05/29 11:04:17;;;;;;;11.20;2.25;;;18.40;92.60;;;;;;5023130;28;20072;-57
2023/05/29 11:06:44;;;;;;;14.82;3.45;;;18.20;92.60;;;;;;5036807;28;20041;-56
2023/05/29 11:09:27;;;;;;;8.40;2.28;;;18.10;93.30;;;;;;5033574;28;20045;-56
2023/05/29 11:12:33;;;;;;;16.77;3.30;;;18.00;93.20;;;;;;5038610;28;20068;-57
2023/05/29 11:15:08;;;;;;;12.50;3.30;;;18.00;92.90;;;;;;5039016;28;20045;-56
2023/05/29 11:17:37;;;;;;;12.30;2.60;;;18.00;93.60;;;;;;5038907;28;20045;-57
2023/05/29 11:20:06;;;;;;;8.40;2.05;;;17.90;93.80;;;;;;5034219;28;20049;-63
2023/05/29 11:22:59;;;;;;;9.95;2.95;;;17.80;94.00;;;;;;5041285;28;20564;-59
2023/05/29 11:25:26;;;;;;;12.18;2.40;;;17.50;94.40;;;;;;5032570;28;20071;-70
2023/05/29 11:27:53;;;;;;;14.45;3.88;;;17.50;94.50;;;;;;5019654;28;20053;-62
2023/05/29 11:30:20;;;;;;;10.93;2.65;;;17.50;94.80;;;;;;5035570;28;20045;-53
2023/05/29 11:32:48;;;;;;;14.85;2.28;;;17.70;95.00;;;;;;5040858;28;20141;-57
2023/05/29 11:35:15;;;;;;;8.93;2.55;;;17.80;94.70;;;;;;5034433;28;20616;-57
2023/05/29 11:37:44;;;;;;;17.08;5.20;;;17.70;94.00;;;;;;5042829;28;20057;-58
2023/05/29 11:40:11;;;;;;;13.68;2.47;;;17.60;94.00;;;;;;5040118;28;20056;-58
2023/05/29 11:42:46;;;;;;;12.38;3.13;;;17.50;94.20;;;;;;5015664;28;20107;-60
2023/05/29 11:45:19;;;;;;;16.70;3.63;;;17.60;93.50;;;;;;5037280;28;20044;-57
2023/05/29 11:47:56;;;;;;;14.43;2.67;;;17.70;93.90;;;;;;5037161;28;20346;-58
2023/05/29 11:50:27;;;;;;;8.95;2.72;;;17.70;93.70;;;;;;5038369;28;20043;-58
2023/05/29 11:52:54;;;;;;;15.68;2.95;;;17.80;93.50;;;;;;5035732;28;20131;-57
2023/05/29 11:55:22;;;;;;;20.58;2.88;;;17.90;93.70;;;;;;5041617;28;20045;-57
2023/05/29 11:57:49;;;;;;;9.32;2.08;;;18.00;93.50;;;;;;5033963;28;20049;-59
2023/05/29 12:00:18;;;;;;;17.58;3.15;;;18.10;93.70;;;;;;5015289;28;20106;-58
2023/05/29 12:02:49;;;;;;;11.55;3.30;;;18.00;93.60;;;;;;5032995;28;20057;-58
2023/05/29 12:05:18;;;;;;;17.30;3.33;;;18.00;93.80;;;;;;5034757;28;20041;-58
2023/05/29 12:08:00;;;;;;;6.72;2.03;;;18.10;93.50;;;;;;5036934;28;20107;-58
2023/05/29 12:10:28;;;;;;;14.25;2.55;;;18.00;92.90;;;;;;5033338;28;20045;-59
2023/05/29 12:12:56;;;;;;;15.68;3.28;;;18.10;93.40;;;;;;5035582;28;20037;-59
2023/05/29 12:15:23;;;;;;;15.43;3.13;;;18.10;93.40;;;;;;5031457;28;20591;-58
2023/05/29 12:17:50;;;;;;;13.77;2.97;;;18.00;93.70;;;;;;5036206;28;20640;-59
2023/05/29 12:20:18;;;;;;;12.93;2.80;;;18.10;93.20;;;;;;5017171;28;20052;-58
2023/05/29 12:22:45;;;;;;;10.82;3.15;;;18.10;93.50;;;;;;5037798;28;20057;-59
2023/05/29 12:25:13;;;;;;;13.32;3.00;;;18.20;93.70;;;;;;5033608;28;20204;-59
2023/05/29 12:27:48;;;;;;;13.80;3.28;;;18.10;92.80;;;;;;5034334;28;20059;-58
2023/05/29 12:30:24;;;;;;;12.98;3.05;;;18.10;93.20;;;;;;5012537;28;20077;-58
2023/05/29 12:32:59;;;;;;;11.38;2.80;;;18.00;92.20;;;;;;5034855;28;20049;-58
2023/05/29 12:35:28;;;;;;;14.00;2.97;;;18.00;92.90;;;;;;5035933;28;20048;-58
2023/05/29 12:38:01;;;;;;;14.68;4.03;;;18.10;93.20;;;;;;5040036;28;20288;-59
2023/05/29 12:40:28;;;;;;;;;;;18.20;93.00;;;;;;5033676;28;20041;-57
2023/05/29 12:43:00;;;;;;;14.35;1.90;;;18.20;92.20;;;;;;5034270;28;19925;-59
2023/05/29 12:45:28;;;;;;;8.88;2.40;;;18.20;92.70;;;;;;5017039;28;20049;-58